Terminal Aerodrome Forecast
Issued by NWS Lake Charles, LA

Current Version | Previous Version | Text Only | Print | Product List | Glossary On
Versions: 1 2 3 4 5 6 7 8 9 10 11 12 13 14 15 16 17
444
FTUS44 KLCH 192335
TAFLFT
TAF
KLFT 192335Z 2000/2024 20005KT P6SM BKN250
     FM200900 00000KT 4SM BR FEW012 SCT250
      TEMPO 2010/2013 2SM BR SCT003
     FM201400 18005KT P6SM SCT025
     FM201700 20007KT P6SM VCSH SCT035 SCT250=

USA.gov is the U.S. government's official web portal to all federal, state and local government web resources and services.